createdAt,value
2023-04-29T00:01:26.102Z,97890.59
2023-04-29T00:03:54.068Z,97883.94
2023-04-29T00:06:21.572Z,97880.38
2023-04-29T00:08:48.760Z,97881.91
2023-04-29T00:11:16.128Z,97875.59
2023-04-29T00:13:43.329Z,97882.81
2023-04-29T00:16:10.663Z,97879.81
2023-04-29T00:18:38.016Z,97880.53
2023-04-29T00:21:08.058Z,97878.94
2023-04-29T00:23:35.553Z,97881.94
2023-04-29T00:26:02.699Z,97882.09
2023-04-29T00:28:29.954Z,97882.03
2023-04-29T00:30:57.224Z,97886.72
2023-04-29T00:33:24.387Z,97891.06
2023-04-29T00:35:51.673Z,97889.00
2023-04-29T00:38:19.048Z,97886.91
2023-04-29T00:40:46.332Z,97885.97
2023-04-29T00:43:13.705Z,97893.25
2023-04-29T00:45:40.807Z,97893.53
2023-04-29T00:48:08.194Z,97903.34
2023-04-29T00:50:36.775Z,97896.06
2023-04-29T00:53:04.403Z,97900.94
2023-04-29T00:55:33.146Z,97894.34
2023-04-29T00:58:00.765Z,97905.84
2023-04-29T01:00:28.865Z,97900.75
2023-04-29T01:02:57.200Z,97897.59
2023-04-29T01:05:25.258Z,97900.41
2023-04-29T01:08:49.934Z,97901.06
2023-04-29T01:11:23.610Z,97901.91
2023-04-29T01:13:56.446Z,97906.44
2023-04-29T01:16:45.249Z,97900.13
2023-04-29T01:19:53.565Z,97898.53
2023-04-29T01:22:22.347Z,97902.84
2023-04-29T01:24:49.890Z,97912.34
2023-04-29T01:27:21.866Z,97911.25
2023-04-29T01:31:01.274Z,97897.81
2023-04-29T01:33:55.221Z,97909.81
2023-04-29T01:36:40.192Z,97906.56
2023-04-29T01:40:04.363Z,97907.19
2023-04-29T01:42:46.100Z,97906.50
2023-04-29T01:45:21.333Z,97908.28
2023-04-29T01:47:51.274Z,97911.53
2023-04-29T01:50:18.425Z,97915.63
2023-04-29T01:52:45.687Z,97909.84
2023-04-29T01:55:12.736Z,97910.56
2023-04-29T01:57:56.884Z,97910.06
2023-04-29T02:00:42.790Z,97912.44
2023-04-29T02:03:10.279Z,97905.81
2023-04-29T02:05:40.515Z,97900.56
2023-04-29T02:08:07.896Z,97902.78
2023-04-29T02:10:39.296Z,97897.75
2023-04-29T02:13:28.432Z,97892.19
2023-04-29T02:15:55.662Z,97903.91
2023-04-29T02:18:22.767Z,97899.25
2023-04-29T02:20:50.981Z,97899.81
2023-04-29T02:23:18.030Z,97900.88
2023-04-29T02:25:45.027Z,97910.78
2023-04-29T02:28:12.457Z,97909.16
2023-04-29T02:30:40.960Z,97907.25
2023-04-29T02:33:08.778Z,97899.38
2023-04-29T02:35:36.155Z,97910.88
2023-04-29T02:38:03.378Z,97909.38
2023-04-29T02:40:30.682Z,97906.59
2023-04-29T02:42:59.251Z,97911.00
2023-04-29T02:45:28.108Z,97913.31
2023-04-29T02:47:55.133Z,97915.41
2023-04-29T02:50:22.306Z,97910.88
2023-04-29T02:52:50.018Z,97907.75
2023-04-29T02:55:17.203Z,97912.66
2023-04-29T02:57:44.483Z,97917.41
2023-04-29T03:00:11.904Z,97910.56
2023-04-29T03:02:47.790Z,97907.66
2023-04-29T03:05:15.578Z,97916.97
2023-04-29T03:07:42.827Z,97909.88
2023-04-29T03:10:10.160Z,97917.78
2023-04-29T03:12:39.468Z,97917.19
2023-04-29T03:15:08.090Z,97914.88
2023-04-29T03:17:35.361Z,97912.53
2023-04-29T03:20:03.494Z,97922.19
2023-04-29T03:22:30.519Z,97922.66
2023-04-29T03:24:57.509Z,97918.25
2023-04-29T03:27:24.910Z,97917.91
2023-04-29T03:29:52.223Z,97913.47
2023-04-29T03:32:19.572Z,97910.91
2023-04-29T03:34:46.829Z,97908.50
2023-04-29T03:37:44.624Z,97908.50
2023-04-29T03:40:29.524Z,97902.09
2023-04-29T03:42:56.538Z,97903.03
2023-04-29T03:45:24.296Z,97913.44
2023-04-29T03:47:51.710Z,97903.91
2023-04-29T03:50:19.120Z,97903.44
2023-04-29T03:52:50.283Z,97899.88
2023-04-29T03:55:19.645Z,97910.06
2023-04-29T03:57:47.976Z,97908.03
2023-04-29T04:00:19.695Z,97914.06
2023-04-29T04:02:53.368Z,97911.59
2023-04-29T04:05:21.520Z,97917.09
2023-04-29T04:07:54.002Z,97910.28
2023-04-29T04:10:30.091Z,97912.03
2023-04-29T04:12:58.715Z,97920.31
2023-04-29T04:15:26.457Z,97918.44
2023-04-29T04:17:53.626Z,97918.75
2023-04-29T04:20:20.713Z,97916.84
2023-04-29T04:22:49.448Z,97922.13
2023-04-29T04:25:21.443Z,97925.78
2023-04-29T04:27:49.485Z,97928.69
2023-04-29T04:30:28.461Z,97940.44
2023-04-29T04:32:55.541Z,97930.78
2023-04-29T04:35:22.740Z,97935.53
2023-04-29T04:37:50.859Z,97940.19
2023-04-29T04:40:17.895Z,97941.69
2023-04-29T04:43:07.327Z,97949.84
2023-04-29T04:45:36.685Z,97952.72
2023-04-29T04:48:04.494Z,97954.88
2023-04-29T04:50:33.911Z,97954.81
2023-04-29T04:53:00.975Z,97956.81
2023-04-29T04:55:43.188Z,97954.97
2023-04-29T04:58:10.169Z,97966.00
2023-04-29T05:00:39.047Z,97963.47
2023-04-29T05:03:06.304Z,97967.59
2023-04-29T05:05:33.985Z,97971.59
2023-04-29T05:08:01.606Z,97972.38
2023-04-29T05:10:41.021Z,97975.06
2023-04-29T05:13:08.367Z,97987.81
2023-04-29T05:15:38.903Z,97988.63
2023-04-29T05:18:07.595Z,97996.06
2023-04-29T05:20:35.345Z,98007.16
2023-04-29T05:23:03.494Z,98002.38
2023-04-29T05:25:35.981Z,98000.50
2023-04-29T05:28:04.795Z,98013.31
2023-04-29T05:30:34.774Z,98009.69
2023-04-29T05:33:02.341Z,98013.78
2023-04-29T05:35:29.622Z,98016.88
2023-04-29T05:38:00.262Z,98016.78
2023-04-29T05:40:36.087Z,98021.00
2023-04-29T05:43:18.130Z,98021.41
2023-04-29T05:45:47.796Z,98027.72
2023-04-29T05:48:14.874Z,98033.81
2023-04-29T05:50:42.105Z,98028.94
2023-04-29T05:53:09.175Z,98032.91
2023-04-29T05:55:36.665Z,98031.25
2023-04-29T05:58:04.165Z,98041.91
2023-04-29T06:00:31.897Z,98049.16
2023-04-29T06:03:07.246Z,98047.31
2023-04-29T06:05:35.313Z,98046.56
2023-04-29T06:08:29.587Z,98049.47
2023-04-29T06:11:05.308Z,98058.16
2023-04-29T06:13:33.234Z,98054.66
2023-04-29T06:16:00.405Z,98061.19
2023-04-29T06:18:31.440Z,98063.56
2023-04-29T06:20:59.820Z,98068.81
2023-04-29T06:23:27.176Z,98072.16
2023-04-29T06:25:54.851Z,98078.56
2023-04-29T06:28:22.460Z,98079.78
2023-04-29T06:30:50.391Z,98084.50
2023-04-29T06:33:18.111Z,98089.84
2023-04-29T06:35:45.130Z,98089.88
2023-04-29T06:38:35.209Z,98100.66
2023-04-29T06:41:32.211Z,98099.34
2023-04-29T06:44:08.059Z,98105.38
2023-04-29T06:46:39.352Z,98106.31
2023-04-29T06:49:19.508Z,98099.81
2023-04-29T06:51:49.062Z,98112.53
2023-04-29T06:54:16.679Z,98102.41
2023-04-29T06:56:43.755Z,98111.78
2023-04-29T06:59:12.558Z,98119.88
2023-04-29T07:01:42.489Z,98112.72
2023-04-29T07:04:12.129Z,98116.63
2023-04-29T07:06:39.511Z,98118.34
2023-04-29T07:09:07.029Z,98118.53
2023-04-29T07:11:34.419Z,98115.22
2023-04-29T07:14:01.634Z,98123.53
2023-04-29T07:16:30.641Z,98132.41
2023-04-29T07:18:57.975Z,98129.88
2023-04-29T07:21:25.181Z,98130.78
2023-04-29T07:23:52.972Z,98143.66
2023-04-29T07:26:19.984Z,98134.56
2023-04-29T07:28:48.469Z,98141.28
2023-04-29T07:31:16.771Z,98138.16
2023-04-29T07:33:46.297Z,98138.38
2023-04-29T07:36:13.459Z,98135.94
2023-04-29T07:38:41.335Z,98144.56
2023-04-29T07:41:08.345Z,98141.59
2023-04-29T07:43:35.559Z,98143.69
2023-04-29T07:46:02.744Z,98148.81
2023-04-29T07:48:29.954Z,98161.03
2023-04-29T07:50:57.353Z,98152.94
2023-04-29T07:53:24.382Z,98162.44
2023-04-29T07:55:51.993Z,98151.13
2023-04-29T07:58:21.213Z,98165.50
2023-04-29T08:00:48.591Z,98165.13
2023-04-29T08:03:15.647Z,98171.59
2023-04-29T08:05:45.241Z,98176.50
2023-04-29T08:08:15.631Z,98170.59
2023-04-29T08:10:44.026Z,98177.34
2023-04-29T08:13:11.225Z,98182.66
2023-04-29T08:15:41.444Z,98191.81
2023-04-29T08:18:08.526Z,98180.94
2023-04-29T08:20:35.707Z,98188.63
2023-04-29T08:23:02.987Z,98190.09
2023-04-29T08:25:30.612Z,98181.88
2023-04-29T08:27:57.835Z,98181.28
2023-04-29T08:30:24.895Z,98185.00
2023-04-29T08:32:52.072Z,98194.25
2023-04-29T08:35:19.208Z,98193.16
2023-04-29T08:37:46.356Z,98193.72
2023-04-29T08:40:13.955Z,98197.91
2023-04-29T08:42:41.168Z,98193.25
2023-04-29T08:45:08.725Z,98191.16
2023-04-29T08:47:37.092Z,98194.06
2023-04-29T08:50:06.301Z,98195.09
2023-04-29T08:52:33.834Z,98193.13
2023-04-29T08:55:05.630Z,98186.91
2023-04-29T08:57:43.212Z,98192.09
2023-04-29T09:00:11.815Z,98192.31
2023-04-29T09:02:46.463Z,98189.88
2023-04-29T09:05:13.679Z,98197.56
2023-04-29T09:07:41.885Z,98192.28
2023-04-29T09:10:10.446Z,98193.97
2023-04-29T09:12:37.738Z,98193.03
2023-04-29T09:15:05.325Z,98193.59
2023-04-29T09:17:48.771Z,98195.94
2023-04-29T09:20:22.147Z,98192.97
2023-04-29T09:22:59.495Z,98198.25
2023-04-29T09:25:27.915Z,98201.94
2023-04-29T09:27:55.891Z,98200.31
2023-04-29T09:30:24.117Z,98206.94
2023-04-29T09:33:10.196Z,98207.47
2023-04-29T09:35:40.786Z,98212.94
2023-04-29T09:38:16.853Z,98211.06
2023-04-29T09:40:58.108Z,98205.22
2023-04-29T09:43:26.223Z,98212.94
2023-04-29T09:45:53.611Z,98215.78
2023-04-29T09:48:20.744Z,98224.53
2023-04-29T09:51:02.203Z,98220.97
2023-04-29T09:53:31.597Z,98221.16
2023-04-29T09:56:01.150Z,98226.19
2023-04-29T09:58:37.324Z,98226.66
2023-04-29T10:01:05.364Z,98228.19
2023-04-29T10:03:38.595Z,98231.78
2023-04-29T10:06:08.242Z,98233.28
2023-04-29T10:08:35.871Z,98238.06
2023-04-29T10:11:04.521Z,98231.56
2023-04-29T10:13:34.965Z,98233.50
2023-04-29T10:16:48.338Z,98231.56
2023-04-29T10:19:37.113Z,98237.34
2023-04-29T10:22:17.267Z,98237.47
2023-04-29T10:24:44.857Z,98238.34
2023-04-29T10:27:13.288Z,98238.94
2023-04-29T10:29:41.712Z,98238.59
2023-04-29T10:32:13.182Z,98233.63
2023-04-29T10:34:41.122Z,98235.59
2023-04-29T10:37:16.798Z,98231.88
2023-04-29T10:40:21.002Z,98231.31
2023-04-29T10:42:53.289Z,98228.28
2023-04-29T10:45:28.411Z,98232.94
2023-04-29T10:48:08.862Z,98237.59
2023-04-29T10:50:46.701Z,98226.69
2023-04-29T10:53:22.204Z,98223.84
2023-04-29T10:55:57.276Z,98226.66
2023-04-29T10:58:44.744Z,98219.34
2023-04-29T11:01:15.113Z,98214.28
2023-04-29T11:03:50.863Z,98215.44
2023-04-29T11:06:17.953Z,98214.19
2023-04-29T11:08:45.077Z,98222.63
2023-04-29T11:11:15.005Z,98219.97
2023-04-29T11:13:47.200Z,98216.47
2023-04-29T11:16:14.345Z,98215.72
2023-04-29T11:19:11.078Z,98222.81
2023-04-29T11:21:38.170Z,98224.91
2023-04-29T11:24:06.669Z,98213.63
2023-04-29T11:26:37.410Z,98209.34
2023-04-29T11:29:06.005Z,98209.69
2023-04-29T11:31:33.576Z,98210.94
2023-04-29T11:34:00.985Z,98207.22
2023-04-29T11:36:28.448Z,98220.53
2023-04-29T11:38:56.010Z,98219.53
2023-04-29T11:41:23.825Z,98211.38
2023-04-29T11:43:59.699Z,98208.31
2023-04-29T11:46:30.968Z,98205.72
2023-04-29T11:49:00.084Z,98211.59
2023-04-29T11:51:28.033Z,98211.16
2023-04-29T11:53:57.905Z,98211.59
2023-04-29T11:56:25.956Z,98208.94
2023-04-29T11:59:01.408Z,98203.78
2023-04-29T12:01:28.569Z,98198.69
2023-04-29T12:04:02.841Z,98202.34
2023-04-29T12:06:30.868Z,98215.94
2023-04-29T12:09:00.820Z,98212.88
2023-04-29T12:11:29.169Z,98215.47
2023-04-29T12:13:57.974Z,98219.41
2023-04-29T12:16:25.757Z,98234.34
2023-04-29T12:18:53.495Z,98233.03
2023-04-29T12:21:22.187Z,98225.25
2023-04-29T12:23:49.342Z,98217.72
2023-04-29T12:26:17.815Z,98225.13
2023-04-29T12:28:44.903Z,98226.78
2023-04-29T12:31:11.978Z,98225.97
2023-04-29T12:33:44.337Z,98226.00
2023-04-29T12:36:19.127Z,98222.88
2023-04-29T12:38:48.085Z,98221.16
2023-04-29T12:41:17.565Z,98228.69
2023-04-29T12:43:44.705Z,98219.72
2023-04-29T12:46:15.336Z,98227.22
2023-04-29T12:48:43.871Z,98229.28
2023-04-29T12:51:11.935Z,98234.34
2023-04-29T12:53:39.757Z,98236.44
2023-04-29T12:56:07.494Z,98233.78
2023-04-29T12:58:35.017Z,98221.06
2023-04-29T13:01:02.209Z,98223.50
2023-04-29T13:03:29.405Z,98223.50
2023-04-29T13:05:57.247Z,98224.91
2023-04-29T13:08:24.305Z,98229.00
2023-04-29T13:10:51.547Z,98230.25
2023-04-29T13:13:18.564Z,98233.31
2023-04-29T13:15:45.658Z,98231.06
2023-04-29T13:18:12.679Z,98219.31
2023-04-29T13:20:42.316Z,98231.63
2023-04-29T13:23:10.702Z,98233.44
2023-04-29T13:25:37.977Z,98227.81
2023-04-29T13:28:08.266Z,98231.59
2023-04-29T13:30:35.400Z,98236.44
2023-04-29T13:33:09.662Z,98238.19
2023-04-29T13:35:40.374Z,98243.13
2023-04-29T13:38:11.581Z,98239.97
2023-04-29T13:40:46.646Z,98254.41
2023-04-29T13:43:18.625Z,98251.13
2023-04-29T13:45:53.039Z,98247.09
2023-04-29T13:48:45.218Z,98245.88
2023-04-29T13:54:16.068Z,98250.78
2023-04-29T14:02:14.801Z,98263.44
2023-04-29T14:04:12.915Z,98260.91
2023-04-29T14:06:39.973Z,98254.06
2023-04-29T14:09:06.974Z,98254.81
2023-04-29T14:11:38.502Z,98259.56
2023-04-29T14:14:05.665Z,98249.81
2023-04-29T14:16:33.062Z,98262.66
2023-04-29T14:19:02.053Z,98265.91
2023-04-29T14:21:31.927Z,98260.75
2023-04-29T14:24:00.064Z,98262.88
2023-04-29T14:26:28.655Z,98266.09
2023-04-29T14:29:00.329Z,98268.69
2023-04-29T14:31:38.404Z,98261.31
2023-04-29T14:34:05.867Z,98265.22
2023-04-29T14:36:33.073Z,98262.34
2023-04-29T14:39:01.024Z,98266.53
2023-04-29T14:41:28.363Z,98269.75
2023-04-29T14:43:55.473Z,98277.63
2023-04-29T14:46:23.553Z,98273.97
2023-04-29T14:48:50.662Z,98289.41
2023-04-29T14:51:17.600Z,98284.19
2023-04-29T14:53:44.615Z,98283.19
2023-04-29T14:56:11.738Z,98294.63
2023-04-29T14:58:38.879Z,98289.31
2023-04-29T15:01:06.201Z,98294.72
2023-04-29T15:06:07.202Z,98295.88
2023-04-29T15:08:34.313Z,98300.19
2023-04-29T15:11:01.290Z,98301.94
2023-04-29T15:13:29.417Z,98297.03
2023-04-29T15:15:57.551Z,98305.09
2023-04-29T15:18:28.432Z,98296.38
2023-04-29T15:20:55.693Z,98309.03
2023-04-29T15:23:22.660Z,98305.28
2023-04-29T15:25:50.281Z,98306.34
2023-04-29T15:28:17.313Z,98298.25
2023-04-29T15:30:44.275Z,98304.91
2023-04-29T15:33:11.377Z,98318.31
2023-04-29T15:35:39.388Z,98323.22
2023-04-29T15:38:07.236Z,98324.91
2023-04-29T15:40:34.279Z,98326.88
2023-04-29T15:43:01.444Z,98316.84
2023-04-29T15:45:28.546Z,98320.25
2023-04-29T15:47:55.754Z,98323.22
2023-04-29T15:50:22.775Z,98332.28
2023-04-29T15:52:52.496Z,98328.75
2023-04-29T15:55:20.696Z,98337.13
2023-04-29T15:57:47.774Z,98335.03
2023-04-29T16:00:14.826Z,98344.59
2023-04-29T16:02:41.843Z,98340.66
2023-04-29T16:05:09.372Z,98347.28
2023-04-29T16:07:36.866Z,98341.66
2023-04-29T16:10:04.220Z,98348.16
2023-04-29T16:12:31.444Z,98344.16
2023-04-29T16:14:58.366Z,98348.94
2023-04-29T16:17:25.725Z,98349.44
2023-04-29T16:19:52.908Z,98348.06
2023-04-29T16:22:21.121Z,98351.47
2023-04-29T16:24:49.917Z,98348.06
2023-04-29T16:27:17.710Z,98351.09
2023-04-29T16:29:44.654Z,98363.84
2023-04-29T16:32:11.759Z,98354.97
2023-04-29T16:34:38.928Z,98365.53
2023-04-29T16:37:12.291Z,98355.75
2023-04-29T16:39:43.051Z,98356.97
2023-04-29T16:42:10.080Z,98356.38
2023-04-29T16:44:37.018Z,98364.88
2023-04-29T16:47:04.276Z,98355.81
2023-04-29T16:49:31.434Z,98362.81
2023-04-29T16:51:58.626Z,98360.47
2023-04-29T16:54:26.410Z,98365.78
2023-04-29T16:56:53.703Z,98360.41
2023-04-29T16:59:20.810Z,98364.94
2023-04-29T17:01:47.902Z,98368.19
2023-04-29T17:04:15.256Z,98362.31
2023-04-29T17:06:43.110Z,98376.13
2023-04-29T17:09:10.414Z,98369.00
2023-04-29T17:11:37.614Z,98371.78
2023-04-29T17:14:05.218Z,98372.81
2023-04-29T17:16:33.376Z,98368.66
2023-04-29T17:19:00.627Z,98363.78
2023-04-29T17:21:30.538Z,98369.34
2023-04-29T17:23:58.822Z,98358.59
2023-04-29T17:26:25.968Z,98354.91
2023-04-29T17:28:53.179Z,98360.69
2023-04-29T17:31:21.250Z,98362.59
2023-04-29T17:33:55.440Z,98367.69
2023-04-29T17:36:22.755Z,98369.16
2023-04-29T17:38:49.871Z,98366.41
2023-04-29T17:41:17.003Z,98371.78
2023-04-29T17:43:44.022Z,98372.09
2023-04-29T17:46:11.311Z,98369.16
2023-04-29T17:48:38.389Z,98365.84
2023-04-29T17:51:05.489Z,98375.28
2023-04-29T17:53:33.464Z,98371.63
2023-04-29T17:56:00.713Z,98377.13
2023-04-29T17:58:28.967Z,98374.72
2023-04-29T18:00:56.764Z,98375.91
2023-04-29T18:03:24.082Z,98368.91
2023-04-29T18:05:51.533Z,98385.47
2023-04-29T18:08:18.525Z,98384.81
2023-04-29T18:10:45.712Z,98385.16
2023-04-29T18:13:12.914Z,98386.31
2023-04-29T18:15:40.302Z,98389.06
2023-04-29T18:18:08.066Z,98386.38
2023-04-29T18:20:35.156Z,98391.19
2023-04-29T18:23:02.823Z,98391.47
2023-04-29T18:25:30.203Z,98395.22
2023-04-29T18:28:07.783Z,98400.66
2023-04-29T18:30:47.561Z,98395.06
2023-04-29T18:33:16.881Z,98392.69
2023-04-29T18:35:44.156Z,98385.03
2023-04-29T18:38:14.176Z,98383.25
2023-04-29T18:40:41.918Z,98393.22
2023-04-29T18:43:09.840Z,98390.03
2023-04-29T18:45:36.873Z,98396.19
2023-04-29T18:48:06.934Z,98394.97
2023-04-29T18:50:34.222Z,98402.38
2023-04-29T18:53:01.541Z,98398.47
2023-04-29T18:55:28.766Z,98403.66
2023-04-29T18:57:56.607Z,98408.53
2023-04-29T19:00:23.946Z,98400.41
2023-04-29T19:02:51.070Z,98407.72
2023-04-29T19:05:21.555Z,98417.16
2023-04-29T19:07:49.463Z,98416.38
2023-04-29T19:10:16.577Z,98411.66
2023-04-29T19:12:43.781Z,98416.66
2023-04-29T19:15:11.903Z,98414.31
2023-04-29T19:17:38.979Z,98421.22
2023-04-29T19:20:07.650Z,98429.09
2023-04-29T19:22:34.732Z,98429.47
2023-04-29T19:25:05.101Z,98431.97
2023-04-29T19:27:32.179Z,98430.03
2023-04-29T19:29:59.253Z,98438.19
2023-04-29T19:32:28.240Z,98438.94
2023-04-29T19:34:57.158Z,98442.41
2023-04-29T19:37:24.494Z,98442.78
2023-04-29T19:39:52.305Z,98443.50
2023-04-29T19:42:19.762Z,98450.94
2023-04-29T19:44:47.294Z,98448.03
2023-04-29T19:47:14.537Z,98450.72
2023-04-29T19:49:41.609Z,98439.72
2023-04-29T19:52:08.701Z,98445.38
2023-04-29T19:54:35.824Z,98453.78
2023-04-29T19:57:03.166Z,98448.84
2023-04-29T19:59:30.368Z,98442.78
2023-04-29T20:01:57.807Z,98447.25
2023-04-29T20:04:25.756Z,98452.56
2023-04-29T20:06:52.783Z,98457.53
2023-04-29T20:09:20.331Z,98458.66
2023-04-29T20:11:47.466Z,98459.19
2023-04-29T20:14:14.542Z,98456.69
2023-04-29T20:16:41.890Z,98458.78
2023-04-29T20:19:09.063Z,98461.69
2023-04-29T20:21:36.617Z,98453.78
2023-04-29T20:24:03.787Z,98459.59
2023-04-29T20:26:30.931Z,98469.88
2023-04-29T20:28:58.445Z,98460.31
2023-04-29T20:31:25.726Z,98463.81
2023-04-29T20:33:53.772Z,98465.00
2023-04-29T20:36:20.915Z,98460.69
2023-04-29T20:38:49.187Z,98469.88
2023-04-29T20:41:16.567Z,98466.84
2023-04-29T20:43:44.303Z,98470.94
2023-04-29T20:46:14.725Z,98474.75
2023-04-29T20:48:42.610Z,98473.22
2023-04-29T20:51:10.813Z,98475.50
2023-04-29T20:53:37.902Z,98482.97
2023-04-29T20:56:05.272Z,98485.19
2023-04-29T20:58:32.355Z,98476.69
2023-04-29T21:00:59.485Z,98485.78
2023-04-29T21:03:26.617Z,98494.06
2023-04-29T21:05:55.277Z,98490.88
2023-04-29T21:08:22.717Z,98492.00
2023-04-29T21:10:49.703Z,98485.94
2023-04-29T21:13:17.847Z,98487.63
2023-04-29T21:15:46.533Z,98490.91
2023-04-29T21:18:14.735Z,98486.34
2023-04-29T21:20:42.076Z,98483.47
2023-04-29T21:23:09.095Z,98486.97
2023-04-29T21:25:36.380Z,98491.16
2023-04-29T21:28:04.040Z,98484.50
2023-04-29T21:30:34.922Z,98486.72
2023-04-29T21:33:02.932Z,98490.00
2023-04-29T21:35:30.625Z,98485.56
2023-04-29T21:37:57.805Z,98497.81
2023-04-29T21:40:26.669Z,98491.03
2023-04-29T21:42:57.460Z,98494.91
2023-04-29T21:45:24.525Z,98494.00
2023-04-29T21:47:52.711Z,98495.34
2023-04-29T21:50:19.914Z,98488.03
2023-04-29T21:52:47.016Z,98489.06
2023-04-29T21:55:14.097Z,98481.72
2023-04-29T21:57:44.884Z,98485.69
2023-04-29T22:00:30.831Z,98494.09
2023-04-29T22:02:58.106Z,98487.63
2023-04-29T22:05:25.378Z,98485.44
2023-04-29T22:07:52.611Z,98490.31
2023-04-29T22:10:19.653Z,98482.75
2023-04-29T22:12:46.726Z,98488.22
2023-04-29T22:15:24.604Z,98493.91
2023-04-29T22:17:54.592Z,98500.34
2023-04-29T22:20:21.788Z,98487.66
2023-04-29T22:22:48.882Z,98497.50
2023-04-29T22:25:16.453Z,98501.31
2023-04-29T22:27:43.478Z,98502.72
2023-04-29T22:30:11.164Z,98502.91
2023-04-29T22:32:38.380Z,98504.66
2023-04-29T22:35:06.413Z,98497.56
2023-04-29T22:37:33.548Z,98502.22
2023-04-29T22:40:00.866Z,98502.44
2023-04-29T22:42:27.870Z,98499.16
2023-04-29T22:44:56.187Z,98512.34
2023-04-29T22:47:23.200Z,98499.75
2023-04-29T22:49:50.241Z,98514.44
2023-04-29T22:52:17.259Z,98506.97
2023-04-29T22:54:44.290Z,98515.47
2023-04-29T22:57:11.346Z,98511.09
2023-04-29T22:59:38.380Z,98507.25
2023-04-29T23:02:05.686Z,98508.94
2023-04-29T23:04:33.402Z,98508.09
2023-04-29T23:07:00.526Z,98511.16
2023-04-29T23:09:27.655Z,98509.81
2023-04-29T23:11:54.701Z,98514.63
2023-04-29T23:14:21.891Z,98515.47
2023-04-29T23:16:49.010Z,98517.81
2023-04-29T23:19:16.450Z,98504.63
2023-04-29T23:21:43.628Z,98508.25
2023-04-29T23:24:10.869Z,98504.22
2023-04-29T23:26:37.921Z,98505.34
2023-04-29T23:29:04.977Z,98508.84
2023-04-29T23:31:32.026Z,98507.97
2023-04-29T23:33:59.772Z,98505.31
2023-04-29T23:36:27.663Z,98506.97
2023-04-29T23:38:54.685Z,98510.16
2023-04-29T23:41:21.694Z,98511.50
2023-04-29T23:43:48.645Z,98514.22
2023-04-29T23:46:15.700Z,98520.59
2023-04-29T23:48:42.845Z,98518.94
2023-04-29T23:51:09.949Z,98520.09
2023-04-29T23:53:39.119Z,98514.78
2023-04-29T23:56:06.556Z,98522.13
2023-04-29T23:58:33.531Z,98518.31
